createdAt,value
2023-02-15T00:00:24.834Z,24.77
2023-02-15T00:05:26.291Z,24.88
2023-02-15T00:10:27.746Z,27.13
2023-02-15T00:15:29.303Z,30.40
2023-02-15T00:20:30.738Z,26.80
2023-02-15T00:25:32.168Z,31.98
2023-02-15T00:30:33.641Z,31.23
2023-02-15T00:35:35.961Z,27.50
2023-02-15T00:40:37.869Z,27.92
2023-02-15T00:45:39.331Z,23.45
2023-02-15T00:50:40.839Z,25.23
2023-02-15T00:55:42.774Z,22.33
2023-02-15T01:00:46.885Z,23.70
2023-02-15T01:05:49.870Z,22.73
2023-02-15T01:10:51.562Z,21.38
2023-02-15T01:15:56.638Z,21.55
2023-02-15T01:20:58.502Z,26.67
2023-02-15T01:26:04.105Z,26.15
2023-02-15T01:31:11.141Z,20.48
2023-02-15T01:36:12.751Z,24.23
2023-02-15T01:41:30.533Z,31.42
2023-02-15T01:46:39.340Z,38.17
2023-02-15T01:51:44.296Z,29.42
2023-02-15T01:56:47.701Z,27.77
2023-02-15T02:01:54.401Z,26.13
2023-02-15T02:06:58.809Z,22.42
2023-02-15T02:12:01.241Z,21.35
2023-02-15T02:17:21.576Z,18.08
2023-02-15T02:22:35.632Z,18.58
2023-02-15T02:28:08.065Z,25.88
2023-02-15T02:33:29.540Z,22.42
2023-02-15T02:39:08.101Z,24.08
2023-02-15T02:44:26.363Z,28.27
2023-02-15T02:49:46.113Z,22.45
2023-02-15T02:54:47.709Z,24.25
2023-02-15T02:59:51.647Z,20.63
2023-02-15T03:05:04.979Z,18.13
2023-02-15T03:10:08.597Z,23.33
2023-02-15T03:15:20.347Z,19.80
2023-02-15T03:20:27.635Z,23.00
2023-02-15T03:25:35.653Z,19.67
2023-02-15T03:30:40.063Z,19.92
2023-02-15T03:35:58.544Z,20.38
2023-02-15T03:41:12.061Z,18.75
2023-02-15T03:46:16.572Z,15.50
2023-02-15T03:51:38.872Z,15.63
2023-02-15T03:57:03.510Z,14.25
2023-02-15T04:02:20.562Z,15.82
2023-02-15T04:07:21.990Z,15.20
2023-02-15T04:12:24.469Z,18.48
2023-02-15T04:17:26.883Z,16.70
2023-02-15T04:22:46.820Z,16.77
2023-02-15T04:27:54.703Z,18.55
2023-02-15T04:32:58.080Z,19.23
2023-02-15T04:37:59.875Z,17.25
2023-02-15T04:43:01.340Z,16.90
2023-02-15T04:48:03.244Z,16.33
2023-02-15T04:53:04.885Z,16.00
2023-02-15T04:58:06.386Z,16.15
2023-02-15T05:03:07.826Z,17.92
2023-02-15T05:08:09.446Z,17.23
2023-02-15T05:13:11.237Z,14.98
2023-02-15T05:22:39.348Z,15.23
2023-02-15T05:27:59.471Z,14.18
2023-02-15T05:33:00.897Z,15.95
2023-02-15T05:38:02.420Z,16.08
2023-02-15T05:43:03.910Z,13.77
2023-02-15T05:48:05.396Z,16.63
2023-02-15T05:53:06.857Z,16.05
2023-02-15T05:58:08.858Z,13.10
2023-02-15T06:03:10.394Z,17.08
2023-02-15T06:08:11.822Z,15.70
2023-02-15T06:13:13.343Z,17.80
2023-02-15T06:18:15.120Z,16.33
2023-02-15T06:23:17.057Z,15.63
2023-02-15T06:28:18.582Z,17.90
2023-02-15T06:33:20.052Z,16.30
2023-02-15T06:38:22.100Z,17.42
2023-02-15T06:43:23.627Z,14.80
2023-02-15T06:48:26.176Z,17.35
2023-02-15T06:53:27.653Z,20.55
2023-02-15T06:58:29.371Z,19.45
2023-02-15T07:03:32.707Z,17.17
2023-02-15T07:08:34.633Z,15.88
2023-02-15T07:13:36.165Z,14.48
2023-02-15T07:18:38.176Z,13.55
2023-02-15T07:23:43.850Z,14.60
2023-02-15T07:28:45.456Z,13.02
2023-02-15T07:33:50.010Z,14.38
2023-02-15T07:38:51.822Z,14.52
2023-02-15T07:43:53.310Z,15.70
2023-02-15T07:48:54.946Z,14.82
2023-02-15T07:53:56.425Z,17.77
2023-02-15T07:58:59.241Z,16.73
2023-02-15T08:04:01.015Z,19.65
2023-02-15T08:09:06.358Z,18.13
2023-02-15T08:14:23.045Z,16.67
2023-02-15T08:19:30.062Z,17.23
2023-02-15T08:24:35.220Z,18.35
2023-02-15T08:29:38.573Z,15.02
2023-02-15T08:34:42.699Z,15.25
2023-02-15T08:39:44.434Z,13.48
2023-02-15T08:44:45.988Z,14.15
2023-02-15T08:49:47.420Z,14.05
2023-02-15T08:54:48.897Z,11.68
2023-02-15T08:59:51.931Z,15.27
2023-02-15T09:04:53.747Z,12.65
2023-02-15T09:09:56.023Z,14.65
2023-02-15T09:14:57.495Z,12.18
2023-02-15T09:19:59.085Z,12.52
2023-02-15T09:25:00.646Z,11.80
2023-02-15T09:30:02.288Z,10.00
2023-02-15T09:35:03.926Z,11.60
2023-02-15T09:40:06.254Z,11.15
2023-02-15T09:45:27.126Z,10.63
2023-02-15T09:50:48.288Z,11.98
2023-02-15T09:56:04.085Z,12.43
2023-02-15T10:01:08.522Z,11.57
2023-02-15T10:06:42.819Z,11.40
2023-02-15T10:12:18.308Z,12.90
2023-02-15T10:17:41.711Z,12.63
2023-02-15T10:22:51.976Z,11.30
2023-02-15T10:27:53.562Z,14.18
2023-02-15T10:33:01.956Z,12.40
2023-02-15T10:38:14.759Z,13.05
2023-02-15T10:43:56.865Z,14.10
2023-02-15T10:49:50.941Z,14.20
2023-02-15T10:55:08.452Z,13.73
2023-02-15T11:00:32.097Z,14.68
2023-02-15T11:05:45.178Z,15.63
2023-02-15T11:11:11.989Z,18.10
2023-02-15T11:16:22.329Z,15.23
2023-02-15T11:21:28.533Z,15.18
2023-02-15T11:26:35.894Z,14.98
2023-02-15T11:31:51.180Z,14.52
2023-02-15T11:36:56.252Z,13.23
2023-02-15T11:42:05.591Z,14.75
2023-02-15T11:47:12.585Z,13.15
2023-02-15T11:52:15.885Z,13.43
2023-02-15T11:57:41.469Z,13.60
2023-02-15T12:02:47.881Z,13.70
2023-02-15T12:08:18.473Z,14.32
2023-02-15T12:18:34.525Z,14.02
2023-02-15T12:23:52.085Z,14.88
2023-02-15T12:28:55.491Z,13.23
2023-02-15T12:34:00.808Z,14.70
2023-02-15T12:39:08.593Z,13.77
2023-02-15T12:44:20.817Z,12.60
2023-02-15T12:49:22.395Z,13.15
2023-02-15T12:54:27.095Z,12.85
2023-02-15T12:59:28.635Z,10.70
2023-02-15T13:04:30.480Z,14.05
2023-02-15T13:09:35.470Z,13.00
2023-02-15T13:14:37.704Z,13.13
2023-02-15T13:19:46.045Z,12.93
2023-02-15T13:24:50.994Z,15.77
2023-02-15T13:29:59.178Z,15.63
2023-02-15T13:35:06.136Z,14.05
2023-02-15T13:40:11.521Z,14.93
2023-02-15T13:45:40.682Z,13.80
2023-02-15T13:51:08.239Z,15.07
2023-02-15T13:56:33.357Z,26.52
2023-02-15T14:01:53.685Z,15.07
2023-02-15T14:07:16.189Z,15.65
2023-02-15T14:12:36.473Z,14.85
2023-02-15T14:18:00.879Z,15.30
2023-02-15T14:23:11.545Z,13.85
2023-02-15T14:28:16.229Z,13.98
2023-02-15T14:33:37.015Z,15.35
2023-02-15T14:39:06.845Z,18.17
2023-02-15T14:44:17.334Z,16.60
2023-02-15T14:54:25.670Z,18.23
2023-02-15T14:59:39.763Z,17.10
2023-02-15T15:04:56.915Z,20.20
2023-02-15T15:10:18.645Z,18.05
2023-02-15T15:15:32.202Z,19.67
2023-02-15T15:20:51.815Z,19.42
2023-02-15T15:26:22.975Z,19.70
2023-02-15T15:31:44.984Z,19.40
2023-02-15T15:37:02.059Z,19.20
2023-02-15T15:42:21.790Z,24.45
2023-02-15T15:47:23.390Z,21.10
2023-02-15T15:52:27.064Z,22.90
2023-02-15T15:57:45.578Z,23.65
2023-02-15T16:02:53.944Z,21.95
2023-02-15T16:07:55.658Z,18.90
2023-02-15T16:12:57.370Z,21.17
2023-02-15T16:18:00.815Z,21.35
2023-02-15T16:23:23.703Z,22.60
2023-02-15T16:28:25.438Z,22.00
2023-02-15T16:33:38.076Z,23.30
2023-02-15T16:38:42.675Z,24.00
2023-02-15T16:43:48.095Z,26.23
2023-02-15T16:48:55.366Z,19.70
2023-02-15T16:54:01.472Z,20.20
2023-02-15T16:59:04.385Z,18.35
2023-02-15T17:04:33.226Z,15.88
2023-02-15T17:09:35.184Z,21.52
2023-02-15T17:14:42.432Z,17.17
2023-02-15T17:19:50.058Z,18.10
2023-02-15T17:24:59.437Z,17.42
2023-02-15T17:30:14.644Z,19.10
2023-02-15T17:35:20.511Z,17.98
2023-02-15T17:40:30.226Z,18.33
2023-02-15T17:45:47.917Z,16.93
2023-02-15T17:50:49.989Z,18.90
2023-02-15T17:55:52.294Z,19.95
2023-02-15T18:01:16.508Z,19.35
2023-02-15T18:06:36.412Z,42.45
2023-02-15T18:11:40.674Z,24.17
2023-02-15T18:16:45.619Z,21.30
2023-02-15T18:21:47.933Z,18.27
2023-02-15T18:26:49.751Z,16.75
2023-02-15T18:31:56.450Z,16.80
2023-02-15T18:36:59.905Z,17.58
2023-02-15T18:42:01.714Z,21.65
2023-02-15T18:47:03.192Z,23.27
2023-02-15T18:52:04.853Z,26.35
2023-02-15T18:57:06.265Z,20.08
2023-02-15T19:02:13.631Z,24.33
2023-02-15T19:07:29.872Z,22.52
2023-02-15T19:12:31.416Z,19.85
2023-02-15T19:17:32.827Z,16.23
2023-02-15T19:22:34.903Z,20.15
2023-02-15T19:27:36.431Z,22.60
2023-02-15T19:32:37.874Z,25.60
2023-02-15T19:37:42.468Z,30.02
2023-02-15T19:42:44.393Z,38.55
2023-02-15T19:47:48.062Z,25.90
2023-02-15T19:52:51.932Z,23.05
2023-02-15T19:57:54.847Z,26.70
2023-02-15T20:02:59.230Z,26.98
2023-02-15T20:08:03.947Z,27.00
2023-02-15T20:13:05.443Z,27.00
2023-02-15T20:18:07.628Z,28.73
2023-02-15T20:23:21.723Z,32.75
2023-02-15T20:28:29.550Z,32.60
2023-02-15T20:33:31.026Z,29.05
2023-02-15T20:38:32.874Z,22.02
2023-02-15T20:43:34.585Z,24.40
2023-02-15T20:48:36.269Z,17.23
2023-02-15T20:53:37.722Z,24.17
2023-02-15T20:58:41.789Z,26.27
2023-02-15T21:03:43.262Z,32.08
2023-02-15T21:08:44.981Z,25.77
2023-02-15T21:13:48.752Z,25.15
2023-02-15T21:18:50.171Z,25.52
2023-02-15T21:23:53.001Z,24.58
2023-02-15T21:28:55.163Z,27.40
2023-02-15T21:33:56.788Z,22.73
2023-02-15T21:38:58.396Z,28.27
2023-02-15T21:44:18.228Z,25.02
2023-02-15T21:49:19.651Z,22.58
2023-02-15T21:54:21.472Z,23.70
2023-02-15T21:59:22.922Z,27.42
2023-02-15T22:04:29.883Z,29.83
2023-02-15T22:09:31.341Z,26.25
2023-02-15T22:14:39.071Z,23.77
2023-02-15T22:19:40.525Z,24.15
2023-02-15T22:24:42.722Z,25.67
2023-02-15T22:29:44.301Z,29.70
2023-02-15T22:34:46.469Z,28.38
2023-02-15T22:39:47.948Z,26.55
2023-02-15T22:44:49.709Z,26.38
2023-02-15T22:49:51.642Z,24.00
2023-02-15T22:54:53.136Z,26.27
2023-02-15T22:59:54.871Z,28.63
2023-02-15T23:04:56.328Z,25.85
2023-02-15T23:09:57.755Z,29.50
2023-02-15T23:14:59.447Z,34.40
2023-02-15T23:20:00.855Z,27.33
2023-02-15T23:25:02.296Z,28.60
2023-02-15T23:30:05.936Z,30.00
2023-02-15T23:35:17.784Z,28.45
2023-02-15T23:40:40.235Z,34.05
2023-02-15T23:45:41.744Z,29.38
2023-02-15T23:50:43.780Z,31.60
2023-02-15T23:55:45.294Z,29.05
